createdAt,value
2019-03-29T00:00:35.847Z,72.6
2019-03-29T00:03:00.240Z,71.9
2019-03-29T00:04:12.439Z,72.9
2019-03-29T00:05:24.635Z,73.2
2019-03-29T00:07:49.016Z,71.9
2019-03-29T00:09:01.307Z,73
2019-03-29T00:10:13.398Z,72.1
2019-03-29T00:11:28.429Z,72.9
2019-03-29T00:12:37.795Z,72.2
2019-03-29T00:15:02.311Z,72.5
2019-03-29T00:16:14.373Z,72.7
2019-03-29T00:17:26.576Z,73.3
2019-03-29T00:18:38.781Z,73.3
2019-03-29T00:19:51.024Z,73
2019-03-29T00:21:03.153Z,72.5
2019-03-29T00:22:15.452Z,71.8
2019-03-29T00:23:27.731Z,72.8
2019-03-29T00:24:39.730Z,73
2019-03-29T00:27:05.093Z,74.3
2019-03-29T00:28:16.312Z,73.2
2019-03-29T00:29:28.616Z,73
2019-03-29T00:31:52.959Z,73
2019-03-29T00:33:05.122Z,73.3
2019-03-29T00:34:17.276Z,73.2
2019-03-29T00:35:29.477Z,73.4
2019-03-29T00:36:41.807Z,73
2019-03-29T00:39:06.062Z,73.7
2019-03-29T00:40:18.433Z,74
2019-03-29T00:41:30.432Z,73.4
2019-03-29T00:42:42.657Z,73.5
2019-03-29T00:43:54.825Z,73.2
2019-03-29T00:45:07.037Z,73.6
2019-03-29T00:46:19.210Z,73.3
2019-03-29T00:47:31.407Z,73
2019-03-29T00:48:43.597Z,73.4
2019-03-29T00:49:55.815Z,74.1
2019-03-29T00:51:07.991Z,73.2
2019-03-29T00:52:20.325Z,73.5
2019-03-29T00:54:44.576Z,73.9
2019-03-29T00:55:56.768Z,73.9
2019-03-29T00:57:09.045Z,73.3
2019-03-29T00:58:21.272Z,73.1
2019-03-29T00:59:33.347Z,73.7
2019-03-29T01:00:45.539Z,73.8
2019-03-29T01:01:57.746Z,73.4
2019-03-29T01:03:13.656Z,74.1
2019-03-29T01:04:25.397Z,75.3
2019-03-29T01:05:34.306Z,74.8
2019-03-29T01:06:46.523Z,75.3
2019-03-29T01:07:58.860Z,75.5
2019-03-29T01:09:10.986Z,75.9
2019-03-29T01:10:23.085Z,75.7
2019-03-29T01:11:35.418Z,76.8
2019-03-29T01:12:47.487Z,76
2019-03-29T01:15:12.149Z,76.1
2019-03-29T01:16:24.160Z,75.6
2019-03-29T01:17:36.320Z,75.6
2019-03-29T01:18:48.450Z,76
2019-03-29T01:20:00.709Z,75.7
2019-03-29T01:21:12.832Z,75.2
2019-03-29T01:22:25.229Z,76.7
2019-03-29T01:23:37.233Z,75.6
2019-03-29T01:24:49.410Z,76
2019-03-29T01:28:25.987Z,76.4
2019-03-29T01:30:50.591Z,76.9
2019-03-29T01:32:02.568Z,76.8
2019-03-29T01:33:14.779Z,76.3
2019-03-29T01:35:39.223Z,76.9
2019-03-29T01:36:51.833Z,77.8
2019-03-29T01:39:17.829Z,76.5
2019-03-29T01:40:29.454Z,78
2019-03-29T01:41:40.200Z,77.4
2019-03-29T01:42:52.416Z,78
2019-03-29T01:44:04.519Z,77.8
2019-03-29T01:45:16.720Z,77.5
2019-03-29T01:46:28.969Z,78.2
2019-03-29T01:47:41.094Z,78.7
2019-03-29T01:48:53.282Z,78.6
2019-03-29T01:50:05.521Z,78.4
2019-03-29T01:51:17.671Z,78
2019-03-29T01:52:29.943Z,78.7
2019-03-29T01:54:54.338Z,78.5
2019-03-29T01:56:06.529Z,78.3
2019-03-29T01:57:18.731Z,78.4
2019-03-29T01:58:30.938Z,78.4
2019-03-29T01:59:43.061Z,78.7
2019-03-29T02:00:55.224Z,78.9
2019-03-29T02:02:09.142Z,78.9
2019-03-29T02:03:19.611Z,78.6
2019-03-29T02:04:32.006Z,78.8
2019-03-29T02:05:44.026Z,78.8
2019-03-29T02:06:56.217Z,78.6
2019-03-29T02:08:08.389Z,78.7
2019-03-29T02:09:20.585Z,79.2
2019-03-29T02:10:32.775Z,79
2019-03-29T02:11:45.171Z,78.7
2019-03-29T02:12:57.161Z,78.7
2019-03-29T02:15:21.587Z,78.7
2019-03-29T02:16:34.290Z,78.6
2019-03-29T02:17:46.534Z,78.6
2019-03-29T02:18:58.226Z,78.8
2019-03-29T02:20:10.354Z,78.3
2019-03-29T02:21:22.530Z,79.3
2019-03-29T02:22:34.711Z,78.9
2019-03-29T02:23:46.909Z,79.3
2019-03-29T02:24:59.100Z,78.8
2019-03-29T02:26:11.375Z,79.2
2019-03-29T02:27:23.601Z,79
2019-03-29T02:28:35.696Z,79.6
2019-03-29T02:29:47.945Z,79.6
2019-03-29T02:31:00.081Z,79.6
2019-03-29T02:32:12.289Z,79.4
2019-03-29T02:33:24.572Z,80.1
2019-03-29T02:34:36.650Z,80
2019-03-29T02:35:48.925Z,80
2019-03-29T02:37:01.039Z,79.8
2019-03-29T02:39:25.601Z,80.4
2019-03-29T02:40:37.726Z,80.6
2019-03-29T02:41:49.872Z,80.6
2019-03-29T02:43:02.123Z,80.3
2019-03-29T02:44:14.211Z,80.3
2019-03-29T02:45:26.591Z,80.8
2019-03-29T02:46:38.721Z,80.5
2019-03-29T02:47:50.818Z,81.5
2019-03-29T02:50:16.108Z,81
2019-03-29T02:51:27.378Z,81.2
2019-03-29T02:52:39.608Z,81.3
2019-03-29T02:55:04.035Z,81.5
2019-03-29T02:57:28.332Z,81.6
2019-03-29T02:59:52.732Z,81.7
2019-03-29T03:01:04.922Z,81.7
2019-03-29T03:02:17.126Z,82.1
2019-03-29T03:03:29.323Z,81.8
2019-03-29T03:04:41.592Z,82.3
2019-03-29T03:05:53.802Z,82.2
2019-03-29T03:07:05.898Z,82
2019-03-29T03:08:18.102Z,82
2019-03-29T03:09:30.313Z,82.3
2019-03-29T03:10:42.470Z,82.3
2019-03-29T03:11:54.796Z,82.2
2019-03-29T03:13:06.870Z,82.7
2019-03-29T03:15:31.241Z,83
2019-03-29T03:16:43.437Z,82.3
2019-03-29T03:17:55.640Z,82.7
2019-03-29T03:19:08.078Z,82.8
2019-03-29T03:20:20.023Z,83
2019-03-29T03:21:32.246Z,83.2
2019-03-29T03:23:56.814Z,82.8
2019-03-29T03:25:08.796Z,82.9
2019-03-29T03:26:21.073Z,83
2019-03-29T03:27:33.205Z,82.9
2019-03-29T03:28:45.387Z,82.9
2019-03-29T03:31:09.782Z,83
2019-03-29T03:32:21.989Z,82.5
2019-03-29T03:33:34.167Z,82.9
2019-03-29T03:34:46.377Z,83.1
2019-03-29T03:35:58.616Z,83.2
2019-03-29T03:39:35.155Z,83.2
2019-03-29T03:40:47.400Z,83.7
2019-03-29T03:41:59.589Z,83
2019-03-29T03:43:11.743Z,83.2
2019-03-29T03:45:36.156Z,83.2
2019-03-29T03:46:48.277Z,83.5
2019-03-29T03:48:00.466Z,83.6
2019-03-29T03:49:12.732Z,84.3
2019-03-29T03:50:25.092Z,84
2019-03-29T03:51:37.153Z,83.6
2019-03-29T03:52:49.382Z,83.8
2019-03-29T03:54:01.550Z,84.4
2019-03-29T03:55:13.647Z,83.7
2019-03-29T03:56:25.853Z,83.8
2019-03-29T03:57:38.042Z,83.8
2019-03-29T03:58:50.310Z,83.7
2019-03-29T04:00:02.434Z,84.3
2019-03-29T04:01:14.690Z,83.7
2019-03-29T04:02:26.821Z,84
2019-03-29T04:03:39.001Z,84.5
2019-03-29T04:04:51.295Z,83.8
2019-03-29T04:06:03.437Z,84
2019-03-29T04:07:15.579Z,83.8
2019-03-29T04:08:27.800Z,84.3
2019-03-29T04:09:40.158Z,83.8
2019-03-29T04:10:52.155Z,84.1
2019-03-29T04:12:04.353Z,84.1
2019-03-29T04:13:16.543Z,84.7
2019-03-29T04:15:40.968Z,83.8
2019-03-29T04:16:53.114Z,83.9
2019-03-29T04:18:05.402Z,83.9
2019-03-29T04:19:17.600Z,84.2
2019-03-29T04:20:29.830Z,84
2019-03-29T04:21:42.059Z,84.1
2019-03-29T04:22:54.129Z,84.6
2019-03-29T04:24:06.365Z,84.3
2019-03-29T04:25:18.476Z,84.1
2019-03-29T04:26:30.674Z,84.3
2019-03-29T04:28:55.238Z,84.3
2019-03-29T04:30:07.268Z,84.3
2019-03-29T04:31:19.541Z,84.9
2019-03-29T04:32:31.637Z,84.3
2019-03-29T04:33:43.847Z,83.7
2019-03-29T04:34:56.048Z,84.2
2019-03-29T04:36:08.309Z,84.5
2019-03-29T04:37:20.421Z,84.1
2019-03-29T04:38:32.655Z,84.3
2019-03-29T04:39:44.874Z,84.5
2019-03-29T04:40:57.010Z,84.3
2019-03-29T04:43:21.591Z,84.4
2019-03-29T04:44:33.584Z,84
2019-03-29T04:45:45.894Z,84.1
2019-03-29T04:46:58.021Z,84.4
2019-03-29T04:48:10.160Z,84.6
2019-03-29T04:49:22.355Z,84.6
2019-03-29T04:51:46.744Z,84.4
2019-03-29T04:52:58.932Z,83.9
2019-03-29T04:54:11.129Z,83.9
2019-03-29T04:55:23.321Z,84.3
2019-03-29T04:56:35.592Z,84.5
2019-03-29T04:57:47.807Z,84.2
2019-03-29T04:58:59.992Z,84.1
2019-03-29T05:00:12.134Z,84.2
2019-03-29T05:01:24.377Z,84.2
2019-03-29T05:03:49.085Z,84
2019-03-29T05:05:01.213Z,84.5
2019-03-29T05:06:13.123Z,84.4
2019-03-29T05:07:25.397Z,83.7
2019-03-29T05:08:37.556Z,84.4
2019-03-29T05:09:49.787Z,84.3
2019-03-29T05:11:01.994Z,84.1
2019-03-29T05:12:14.116Z,84.5
2019-03-29T05:13:26.262Z,84.3
2019-03-29T05:15:50.696Z,84.4
2019-03-29T05:17:02.891Z,84.4
2019-03-29T05:18:15.161Z,84.8
2019-03-29T05:19:27.339Z,84.7
2019-03-29T05:20:39.564Z,84.7
2019-03-29T05:21:51.704Z,84.6
2019-03-29T05:23:03.797Z,84.4
2019-03-29T05:24:15.972Z,84.8
2019-03-29T05:25:28.168Z,84.5
2019-03-29T05:26:40.371Z,84.6
2019-03-29T05:27:52.570Z,84.5
2019-03-29T05:29:04.760Z,84.7
2019-03-29T05:30:17.020Z,84.7
2019-03-29T05:31:29.268Z,84.3
2019-03-29T05:32:41.346Z,84.6
2019-03-29T05:33:53.604Z,84.1
2019-03-29T05:35:05.722Z,84
2019-03-29T05:36:17.917Z,84.1
2019-03-29T05:37:30.126Z,84.2
2019-03-29T05:38:42.415Z,84.5
2019-03-29T05:39:54.578Z,83.9
2019-03-29T05:41:06.784Z,83.8
2019-03-29T05:42:18.896Z,83.8
2019-03-29T05:43:31.180Z,83.2
2019-03-29T05:44:43.345Z,82.9
2019-03-29T05:45:55.578Z,82.5
2019-03-29T05:48:19.866Z,82
2019-03-29T05:49:34.067Z,81.4
2019-03-29T05:50:44.445Z,81.8
2019-03-29T05:51:56.547Z,81
2019-03-29T05:53:08.813Z,81.4
2019-03-29T05:54:20.830Z,80.7
2019-03-29T05:55:33.161Z,79.9
2019-03-29T05:56:45.202Z,80.2
2019-03-29T05:57:57.632Z,80
2019-03-29T05:59:09.661Z,80.1
2019-03-29T06:00:21.819Z,79.4
2019-03-29T06:01:33.998Z,79.7
2019-03-29T06:02:46.167Z,79.5
2019-03-29T06:03:58.448Z,79
2019-03-29T06:05:10.559Z,78.8
2019-03-29T06:06:22.840Z,78.7
2019-03-29T06:07:35.038Z,78.3
2019-03-29T06:08:47.298Z,78.4
2019-03-29T06:09:59.338Z,77.8
2019-03-29T06:11:11.543Z,77.8
2019-03-29T06:12:23.742Z,77.5
2019-03-29T06:16:00.413Z,76.6
2019-03-29T06:17:12.498Z,76.9
2019-03-29T06:18:24.701Z,76.1
2019-03-29T06:19:36.995Z,76.2
2019-03-29T06:20:49.166Z,76.1
2019-03-29T06:22:01.454Z,76.4
2019-03-29T06:23:13.953Z,76.2
2019-03-29T06:24:25.687Z,75.7
2019-03-29T06:25:37.951Z,75.5
2019-03-29T06:26:50.046Z,75.3
2019-03-29T06:28:03.670Z,74.9
2019-03-29T06:29:14.455Z,75.4
2019-03-29T06:30:26.710Z,75
2019-03-29T06:31:38.911Z,75
2019-03-29T06:32:51.024Z,74.5
2019-03-29T06:34:03.293Z,74.7
2019-03-29T06:35:15.428Z,74.3
2019-03-29T06:36:27.602Z,74.4
2019-03-29T06:37:39.811Z,73.6
2019-03-29T06:40:04.288Z,74.2
2019-03-29T06:41:16.454Z,73.8
2019-03-29T06:42:28.599Z,73.6
2019-03-29T06:43:40.779Z,73.6
2019-03-29T06:44:53.052Z,73.7
2019-03-29T06:46:05.270Z,73.6
2019-03-29T06:48:29.656Z,73
2019-03-29T06:49:41.752Z,72.4
2019-03-29T06:53:18.427Z,72.6
2019-03-29T06:54:30.625Z,72.1
2019-03-29T06:55:42.736Z,71.7
2019-03-29T06:56:54.930Z,72.1
2019-03-29T06:58:07.143Z,72.1
2019-03-29T07:00:31.507Z,71
2019-03-29T07:04:08.182Z,71.1
2019-03-29T07:05:20.389Z,70.7
2019-03-29T07:07:44.733Z,70
2019-03-29T07:08:56.872Z,69.6
2019-03-29T07:10:09.064Z,70
2019-03-29T07:11:21.326Z,69.7
2019-03-29T07:12:33.475Z,70.1
2019-03-29T07:13:47.975Z,69.4
2019-03-29T07:16:10.099Z,69.3
2019-03-29T07:17:22.274Z,69.7
2019-03-29T07:18:34.498Z,69.2
2019-03-29T07:19:46.814Z,68.8
2019-03-29T07:20:58.896Z,68.2
2019-03-29T07:22:11.201Z,68.3
2019-03-29T07:23:23.224Z,67.7
2019-03-29T07:24:35.480Z,68.1
2019-03-29T07:25:47.629Z,67.7
2019-03-29T07:28:19.739Z,67.5
2019-03-29T07:29:24.303Z,67.5
2019-03-29T07:30:36.471Z,67.1
2019-03-29T07:31:48.657Z,66.8
2019-03-29T07:33:00.783Z,66.8
2019-03-29T07:34:13.043Z,66.5
2019-03-29T07:35:25.156Z,66.5
2019-03-29T07:36:37.466Z,65.8
2019-03-29T07:37:49.631Z,64.8
2019-03-29T07:40:13.982Z,64.8
2019-03-29T07:41:26.150Z,64.9
2019-03-29T07:42:38.337Z,64.9
2019-03-29T07:43:50.534Z,64.5
2019-03-29T07:45:02.743Z,64.3
2019-03-29T07:46:14.983Z,63.6
2019-03-29T07:47:27.114Z,63.4
2019-03-29T07:48:39.356Z,62.7
2019-03-29T07:49:51.700Z,62.5
2019-03-29T07:51:03.775Z,62
2019-03-29T07:52:15.892Z,62
2019-03-29T07:53:33.207Z,62.6
2019-03-29T07:54:40.384Z,62
2019-03-29T07:55:52.558Z,61.6
2019-03-29T07:57:04.674Z,61.8
2019-03-29T07:58:16.891Z,61.6
2019-03-29T07:59:29.097Z,61
2019-03-29T08:00:41.358Z,61.3
2019-03-29T08:01:53.480Z,61.9
2019-03-29T08:04:17.866Z,61.4
2019-03-29T08:05:30.048Z,60.9
2019-03-29T08:06:42.242Z,60.3
2019-03-29T08:07:54.471Z,60.2
2019-03-29T08:10:18.835Z,60.3
2019-03-29T08:11:31.030Z,59.6
2019-03-29T08:12:43.215Z,59.1
2019-03-29T08:13:55.472Z,58.9
2019-03-29T08:16:20.001Z,59.2
2019-03-29T08:17:32.115Z,59.4
2019-03-29T08:18:44.221Z,59.7
2019-03-29T08:19:56.442Z,59.8
2019-03-29T08:21:08.569Z,59.4
2019-03-29T08:22:20.795Z,59.4
2019-03-29T08:23:33.093Z,59
2019-03-29T08:24:45.170Z,59.4
2019-03-29T08:28:21.742Z,58.2
2019-03-29T08:30:46.162Z,58.2
2019-03-29T08:31:58.344Z,58.2
2019-03-29T08:33:10.554Z,57.6
2019-03-29T08:34:22.737Z,58.4
2019-03-29T08:35:35.020Z,58.1
2019-03-29T08:36:47.213Z,58
2019-03-29T08:37:59.307Z,58.1
2019-03-29T08:40:23.778Z,58
2019-03-29T08:41:35.892Z,58.3
2019-03-29T08:42:48.386Z,57.6
2019-03-29T08:44:00.356Z,58.1
2019-03-29T08:45:12.544Z,58
2019-03-29T08:46:24.692Z,57.6
2019-03-29T08:47:36.887Z,57.7
2019-03-29T08:48:49.153Z,57.9
2019-03-29T08:50:01.381Z,57.4
2019-03-29T08:52:25.659Z,57.6
2019-03-29T08:53:37.915Z,57.1
2019-03-29T08:54:50.166Z,57.1
2019-03-29T08:56:02.236Z,56.1
2019-03-29T08:57:14.427Z,56.4
2019-03-29T08:58:26.638Z,56.7
2019-03-29T08:59:38.936Z,56.2
2019-03-29T09:00:51.096Z,55.9
2019-03-29T09:02:03.367Z,55.8
2019-03-29T09:04:29.046Z,55
2019-03-29T09:05:39.807Z,55.6
2019-03-29T09:06:52.242Z,55.7
2019-03-29T09:08:04.331Z,55.4
2019-03-29T09:09:16.380Z,54.6
2019-03-29T09:10:28.714Z,55
2019-03-29T09:11:40.926Z,54.7
2019-03-29T09:12:52.981Z,54.5
2019-03-29T09:14:05.243Z,54.3
2019-03-29T09:16:33.112Z,54.6
2019-03-29T09:17:42.000Z,54.1
2019-03-29T09:18:54.002Z,53.6
2019-03-29T09:20:06.214Z,52.9
2019-03-29T09:22:30.581Z,52.8
2019-03-29T09:23:42.869Z,52.5
2019-03-29T09:24:54.945Z,52.3
2019-03-29T09:26:07.305Z,53.3
2019-03-29T09:29:43.759Z,52.5
2019-03-29T09:32:08.357Z,52.2
2019-03-29T09:34:32.482Z,51.5
2019-03-29T09:36:57.149Z,50.7
2019-03-29T09:41:45.731Z,49.8
2019-03-29T09:42:57.847Z,50
2019-03-29T09:44:10.205Z,49.5
2019-03-29T09:45:22.408Z,49.9
2019-03-29T09:46:34.502Z,48.7
2019-03-29T09:48:58.871Z,48.7
2019-03-29T09:53:47.632Z,48.4
2019-03-29T09:54:59.823Z,49
2019-03-29T09:56:12.132Z,47.4
2019-03-29T09:58:36.426Z,47.4
2019-03-29T10:01:00.792Z,46.6
2019-03-29T10:04:37.370Z,46.5
2019-03-29T10:05:49.609Z,46.7
2019-03-29T10:08:13.959Z,47.3
2019-03-29T10:10:38.414Z,47.7
2019-03-29T10:11:50.547Z,47.1
2019-03-29T10:13:02.775Z,46.8
2019-03-29T10:14:15.163Z,47.3
2019-03-29T10:16:39.352Z,47.1
2019-03-29T10:17:51.619Z,47
2019-03-29T10:19:03.712Z,45.9
2019-03-29T10:20:15.946Z,46.6
2019-03-29T10:21:28.370Z,45.6
2019-03-29T10:22:40.400Z,45
2019-03-29T10:23:52.537Z,45.7
2019-03-29T10:25:04.701Z,45.1
2019-03-29T10:28:41.425Z,44.7
2019-03-29T10:29:53.576Z,44.9
2019-03-29T10:31:05.683Z,44.8
2019-03-29T10:32:17.978Z,44
2019-03-29T10:33:30.988Z,44.7
2019-03-29T10:34:42.941Z,46.2
2019-03-29T10:35:54.557Z,45.4
2019-03-29T10:37:07.301Z,45.6
2019-03-29T10:38:19.477Z,45.6
2019-03-29T10:40:43.281Z,44.1
2019-03-29T10:41:55.530Z,43.3
2019-03-29T10:43:07.741Z,43.8
2019-03-29T10:44:19.862Z,45
2019-03-29T10:45:32.045Z,43.9
2019-03-29T10:46:44.326Z,44.2
2019-03-29T10:47:56.395Z,43.2
2019-03-29T10:49:08.625Z,43.1
2019-03-29T10:52:45.258Z,43.6
2019-03-29T10:53:57.379Z,43.3
2019-03-29T10:55:09.613Z,42.9
2019-03-29T10:56:21.864Z,42.8
2019-03-29T10:57:34.025Z,43.2
2019-03-29T10:58:46.167Z,42.9
2019-03-29T10:59:58.442Z,43
2019-03-29T11:01:10.660Z,42.9
2019-03-29T11:02:22.794Z,42.3
2019-03-29T11:05:59.344Z,43.1
2019-03-29T11:07:11.606Z,42.4
2019-03-29T11:08:23.812Z,43.2
2019-03-29T11:10:48.128Z,42.5
2019-03-29T11:13:12.647Z,40.9
2019-03-29T11:14:24.738Z,39.8
2019-03-29T11:15:36.918Z,42.7
2019-03-29T11:16:49.124Z,41.4
2019-03-29T11:18:01.298Z,41.9
2019-03-29T11:19:13.491Z,43.2
2019-03-29T11:20:25.693Z,41.9
2019-03-29T11:21:37.900Z,41.4
2019-03-29T11:22:50.120Z,40.7
2019-03-29T11:24:02.281Z,39.5
2019-03-29T11:25:14.472Z,40.2
2019-03-29T11:30:03.313Z,39.5
2019-03-29T11:31:15.458Z,39.8
2019-03-29T11:32:27.657Z,38.6
2019-03-29T11:33:39.848Z,39.5
2019-03-29T11:34:52.065Z,39.6
2019-03-29T11:37:16.432Z,39.1
2019-03-29T11:38:28.626Z,38.7
2019-03-29T11:42:05.251Z,38.5
2019-03-29T11:43:17.445Z,40.2
2019-03-29T11:44:29.713Z,39.7
2019-03-29T11:46:54.081Z,38.9
2019-03-29T11:49:18.639Z,42.4
2019-03-29T11:50:30.653Z,44.8
2019-03-29T11:52:54.995Z,45.3
2019-03-29T11:54:07.174Z,45.8
2019-03-29T11:55:19.445Z,44.5
2019-03-29T11:56:33.220Z,45.1
2019-03-29T11:58:56.420Z,45.4
2019-03-29T12:00:08.158Z,44.8
2019-03-29T12:01:20.543Z,46.2
2019-03-29T12:02:32.543Z,45.2
2019-03-29T12:04:56.945Z,46.8
2019-03-29T12:06:09.336Z,45.6
2019-03-29T12:07:21.415Z,47.4
2019-03-29T12:08:33.674Z,45.9
2019-03-29T12:09:45.796Z,46.9
2019-03-29T12:10:57.912Z,46.9
2019-03-29T12:12:10.262Z,46.1
2019-03-29T12:13:22.327Z,46.7
2019-03-29T12:14:34.497Z,46.8
2019-03-29T12:16:58.888Z,47.2
2019-03-29T12:18:11.098Z,47.8
2019-03-29T12:19:23.330Z,48.2
2019-03-29T12:20:35.469Z,47.5
2019-03-29T12:21:47.667Z,47.1
2019-03-29T12:22:59.857Z,47.1
2019-03-29T12:24:15.519Z,48.3
2019-03-29T12:25:24.351Z,48.1
2019-03-29T12:26:36.567Z,46.2
2019-03-29T12:29:01.066Z,47.8
2019-03-29T12:30:13.118Z,48.4
2019-03-29T12:32:37.423Z,47.7
2019-03-29T12:35:01.811Z,47.2
2019-03-29T12:36:14.003Z,47.3
2019-03-29T12:37:26.219Z,48.1
2019-03-29T12:38:38.641Z,48.9
2019-03-29T12:41:02.969Z,49
2019-03-29T12:42:15.063Z,48.1
2019-03-29T12:43:27.185Z,48.3
2019-03-29T12:44:39.389Z,48.3
2019-03-29T12:45:51.722Z,49.4
2019-03-29T12:47:03.777Z,48.5
2019-03-29T12:48:16.065Z,48.1
2019-03-29T12:49:28.172Z,49.1
2019-03-29T12:50:40.450Z,50
2019-03-29T12:53:04.827Z,49.2
2019-03-29T12:54:16.968Z,49.1
2019-03-29T12:55:29.138Z,48.6
2019-03-29T12:56:41.351Z,49.6
2019-03-29T12:57:53.621Z,49.2
2019-03-29T12:59:05.781Z,49
2019-03-29T13:00:17.964Z,49.5
2019-03-29T13:01:30.136Z,49.7
2019-03-29T13:02:42.315Z,50
2019-03-29T13:05:06.839Z,49.2
2019-03-29T13:06:18.982Z,49
2019-03-29T13:07:31.091Z,49.9
2019-03-29T13:08:43.394Z,49.2
2019-03-29T13:09:55.617Z,48.8
2019-03-29T13:11:07.669Z,50.8
2019-03-29T13:12:19.964Z,51
2019-03-29T13:13:32.103Z,50
2019-03-29T13:14:44.364Z,49.8
2019-03-29T13:18:20.935Z,49.5
2019-03-29T13:20:45.248Z,49.7
2019-03-29T13:21:57.437Z,49.7
2019-03-29T13:23:09.630Z,48.8
2019-03-29T13:24:21.908Z,49.4
2019-03-29T13:25:34.060Z,50.8
2019-03-29T13:26:46.228Z,49.1
2019-03-29T13:29:10.730Z,49.8
2019-03-29T13:30:22.808Z,50.7
2019-03-29T13:31:35.190Z,50.7
2019-03-29T13:32:47.295Z,49.5
2019-03-29T13:33:59.393Z,49.6
2019-03-29T13:35:11.585Z,48.5
2019-03-29T13:36:23.894Z,49.4
2019-03-29T13:37:35.972Z,49.2
2019-03-29T13:38:48.252Z,49.8
2019-03-29T13:41:12.586Z,49.9
2019-03-29T13:42:24.759Z,49.6
2019-03-29T13:43:36.953Z,50.1
2019-03-29T13:44:49.159Z,50
2019-03-29T13:46:01.474Z,50
2019-03-29T13:47:13.542Z,49
2019-03-29T13:48:25.732Z,49.5
2019-03-29T13:49:37.938Z,49.2
2019-03-29T13:53:18.286Z,48.9
2019-03-29T13:54:30.632Z,50
2019-03-29T13:55:38.926Z,49.7
2019-03-29T13:56:51.192Z,51.1
2019-03-29T13:59:15.495Z,48.3
2019-03-29T14:00:27.778Z,50.4
2019-03-29T14:01:39.919Z,50.3
2019-03-29T14:02:52.096Z,50.2
2019-03-29T14:05:16.474Z,50.8
2019-03-29T14:06:28.665Z,49.9
2019-03-29T14:07:40.866Z,49.4
2019-03-29T14:08:53.231Z,49.2
2019-03-29T14:10:05.326Z,50.3
2019-03-29T14:11:17.512Z,49.2
2019-03-29T14:12:33.002Z,49
2019-03-29T14:13:42.203Z,49.9
2019-03-29T14:14:54.057Z,48.9
2019-03-29T14:17:18.422Z,48.3
2019-03-29T14:18:30.687Z,49.6
2019-03-29T14:20:55.084Z,50
2019-03-29T14:22:07.630Z,49.3
2019-03-29T14:23:20.852Z,48.7
2019-03-29T14:24:33.253Z,49.1
2019-03-29T14:25:46.725Z,48.7
2019-03-29T14:26:55.986Z,49.6
2019-03-29T14:29:20.542Z,48.7
2019-03-29T14:30:32.569Z,48.5
2019-03-29T14:31:44.759Z,49
2019-03-29T14:32:57.026Z,49.9
2019-03-29T14:34:09.374Z,49
2019-03-29T14:35:21.423Z,49
2019-03-29T14:36:33.558Z,49.2
2019-03-29T14:37:45.760Z,48.7
2019-03-29T14:38:58.013Z,48.7
2019-03-29T14:42:34.538Z,48.8
2019-03-29T14:44:58.911Z,48.3
2019-03-29T14:47:23.328Z,48.2
2019-03-29T14:48:35.524Z,48.2
2019-03-29T14:49:47.847Z,49.4
2019-03-29T14:54:36.586Z,49.8
2019-03-29T14:55:48.672Z,49.9
2019-03-29T14:57:00.878Z,50
2019-03-29T14:58:13.052Z,48.4
2019-03-29T14:59:25.251Z,49.3
2019-03-29T15:01:49.694Z,49.8
2019-03-29T15:03:01.949Z,49.3
2019-03-29T15:05:26.439Z,50
2019-03-29T15:06:38.439Z,49.2
2019-03-29T15:07:50.699Z,51.1
2019-03-29T15:09:02.810Z,49.9
2019-03-29T15:10:15.006Z,49.3
2019-03-29T15:11:27.229Z,49.8
2019-03-29T15:13:51.679Z,48.9
2019-03-29T15:15:03.794Z,48.4
2019-03-29T15:16:16.018Z,48.8
2019-03-29T15:17:28.202Z,49.1
2019-03-29T15:18:40.393Z,49.9
2019-03-29T15:19:52.563Z,50.4
2019-03-29T15:21:04.763Z,50.6
2019-03-29T15:22:16.965Z,49.9
2019-03-29T15:23:29.186Z,50.3
2019-03-29T15:25:53.580Z,49.8
2019-03-29T15:27:05.886Z,49.1
2019-03-29T15:28:17.947Z,49
2019-03-29T15:29:30.125Z,49.3
2019-03-29T15:30:42.327Z,49.2
2019-03-29T15:31:54.653Z,49.5
2019-03-29T15:33:06.797Z,50.4
2019-03-29T15:34:18.937Z,50.1
2019-03-29T15:35:31.172Z,50.2
2019-03-29T15:36:43.621Z,49.3
2019-03-29T15:37:55.521Z,50.3
2019-03-29T15:41:32.212Z,50.1
2019-03-29T15:42:44.346Z,49.4
2019-03-29T15:43:56.526Z,49.6
2019-03-29T15:45:08.688Z,49.7
2019-03-29T15:46:20.856Z,50.6
2019-03-29T15:47:33.094Z,50.7
2019-03-29T15:48:45.592Z,48.7
2019-03-29T15:49:57.452Z,49.2
2019-03-29T15:51:09.701Z,49.8
2019-03-29T15:52:21.873Z,49.9
2019-03-29T15:54:46.227Z,49.8
2019-03-29T15:55:58.413Z,49.4
2019-03-29T15:57:10.612Z,49.6
2019-03-29T15:58:22.807Z,49
2019-03-29T15:59:35.105Z,49.8
2019-03-29T16:00:47.388Z,50.7
2019-03-29T16:01:59.465Z,49.8
2019-03-29T16:03:11.578Z,48.7
2019-03-29T16:05:36.151Z,51
2019-03-29T16:06:48.242Z,49.6
2019-03-29T16:08:00.364Z,49.7
2019-03-29T16:09:12.586Z,50.4
2019-03-29T16:10:24.765Z,49.4
2019-03-29T16:11:37.032Z,50.2
2019-03-29T16:12:49.127Z,51.3
2019-03-29T16:14:01.317Z,50.1
2019-03-29T16:15:13.518Z,51.2
2019-03-29T16:16:25.705Z,50.4
2019-03-29T16:17:37.911Z,50.1
2019-03-29T16:18:50.255Z,50.7
2019-03-29T16:20:02.279Z,51.5
2019-03-29T16:21:14.482Z,51.9
2019-03-29T16:22:26.678Z,51
2019-03-29T16:23:38.879Z,49.6
2019-03-29T16:24:51.055Z,50.4
2019-03-29T16:26:03.302Z,50.7
2019-03-29T16:27:15.586Z,50.3
2019-03-29T16:29:39.976Z,50.9
2019-03-29T16:30:52.069Z,51
2019-03-29T16:32:04.349Z,49.9
2019-03-29T16:33:16.403Z,50.6
2019-03-29T16:34:28.612Z,51
2019-03-29T16:35:40.839Z,50.6
2019-03-29T16:36:53.073Z,50.6
2019-03-29T16:38:05.286Z,50.8
2019-03-29T16:39:17.392Z,50.6
2019-03-29T16:40:29.840Z,50.7
2019-03-29T16:41:41.962Z,50.6
2019-03-29T16:42:53.959Z,50.6
2019-03-29T16:44:06.162Z,50.4
2019-03-29T16:45:19.768Z,51.5
2019-03-29T16:46:30.671Z,50.6
2019-03-29T16:47:42.877Z,51.1
2019-03-29T16:48:54.921Z,50.8
2019-03-29T16:50:07.124Z,50.7
2019-03-29T16:51:19.323Z,51.1
2019-03-29T16:53:43.779Z,50.3
2019-03-29T16:54:55.888Z,50.4
2019-03-29T16:57:20.392Z,50.8
2019-03-29T16:58:32.505Z,50.8
2019-03-29T16:59:44.662Z,51
2019-03-29T17:00:56.867Z,51
2019-03-29T17:02:09.068Z,51.5
2019-03-29T17:04:33.525Z,50.1
2019-03-29T17:06:57.884Z,51.4
2019-03-29T17:08:10.029Z,51
2019-03-29T17:09:22.270Z,51.1
2019-03-29T17:10:34.484Z,50.5
2019-03-29T17:11:46.650Z,50.3
2019-03-29T17:12:58.850Z,50.6
2019-03-29T17:14:10.986Z,50.6
2019-03-29T17:15:23.225Z,50.5
2019-03-29T17:16:35.500Z,49.9
2019-03-29T17:17:47.585Z,50.5
2019-03-29T17:18:59.850Z,50.1
2019-03-29T17:20:11.962Z,50.8
2019-03-29T17:21:24.150Z,50.2
2019-03-29T17:22:36.391Z,51.1
2019-03-29T17:23:48.645Z,50.5
2019-03-29T17:25:00.737Z,51.1
2019-03-29T17:26:12.913Z,50.8
2019-03-29T17:27:25.798Z,50.3
2019-03-29T17:29:49.503Z,50.1
2019-03-29T17:31:01.702Z,51.5
2019-03-29T17:32:13.973Z,50.3
2019-03-29T17:33:26.227Z,50.4
2019-03-29T17:34:38.273Z,50.5
2019-03-29T17:35:50.500Z,51.2
2019-03-29T17:37:02.701Z,50.9
2019-03-29T17:38:14.985Z,50.8
2019-03-29T17:40:39.234Z,50.8
2019-03-29T17:41:51.523Z,50.2
2019-03-29T17:43:03.643Z,50.9
2019-03-29T17:44:15.891Z,50.7
2019-03-29T17:45:28.132Z,50.7
2019-03-29T17:46:40.219Z,50.3
2019-03-29T17:47:52.394Z,50.7
2019-03-29T17:49:04.747Z,51.4
2019-03-29T17:50:16.835Z,50.6
2019-03-29T17:51:29.180Z,51
2019-03-29T17:52:41.195Z,50.9
2019-03-29T17:53:53.384Z,50.1
2019-03-29T17:55:05.558Z,50.8
2019-03-29T17:56:17.805Z,49.5
2019-03-29T17:57:30.059Z,50.9
2019-03-29T17:58:42.352Z,50.5
2019-03-29T17:59:54.328Z,50.4
2019-03-29T18:01:06.568Z,51.1
2019-03-29T18:02:18.722Z,50.7
2019-03-29T18:03:30.917Z,51
2019-03-29T18:05:55.294Z,50.7
2019-03-29T18:07:07.609Z,50.5
2019-03-29T18:08:19.679Z,51.1
2019-03-29T18:09:31.888Z,50.8
2019-03-29T18:10:44.090Z,51.3
2019-03-29T18:11:56.273Z,50
2019-03-29T18:13:08.556Z,50
2019-03-29T18:14:20.757Z,50.7
2019-03-29T18:15:32.852Z,52.2
2019-03-29T18:17:57.291Z,51
2019-03-29T18:19:09.452Z,50.9
2019-03-29T18:20:22.599Z,51.2
2019-03-29T18:21:33.905Z,51.1
2019-03-29T18:22:46.051Z,51.2
2019-03-29T18:23:58.261Z,51.2
2019-03-29T18:25:10.398Z,51.9
2019-03-29T18:26:22.672Z,52.2
2019-03-29T18:27:34.796Z,51.7
2019-03-29T18:32:23.638Z,53.1
2019-03-29T18:33:35.742Z,52.4
2019-03-29T18:34:47.954Z,52.7
2019-03-29T18:36:00.156Z,52.6
2019-03-29T18:37:12.334Z,52.5
2019-03-29T18:38:25.760Z,52.7
2019-03-29T18:39:36.730Z,52.2
2019-03-29T18:42:01.100Z,52.3
2019-03-29T18:43:13.388Z,52.8
2019-03-29T18:44:25.483Z,52.9
2019-03-29T18:45:37.758Z,52.6
2019-03-29T18:46:49.911Z,52.3
2019-03-29T18:48:02.067Z,53.4
2019-03-29T18:49:14.256Z,52.8
2019-03-29T18:50:26.572Z,52.7
2019-03-29T18:51:38.752Z,53.1
2019-03-29T18:52:50.840Z,53.2
2019-03-29T18:55:15.305Z,53.3
2019-03-29T18:56:27.416Z,52.8
2019-03-29T18:57:39.695Z,53.3
2019-03-29T18:58:51.887Z,53.5
2019-03-29T19:00:04.002Z,53.4
2019-03-29T19:01:16.193Z,53.1